Latest Coastal Weather Observations for Tasman Island

IDT60701

Issued at 9:41 am EDT Wednesday 4 March 2015 (issued every 10 minutes, with the page automatically refreshed every 10 minutes)

About coastal observations | Map of coastal stations | Coastal observations for TAS | Marine services | Other Formats
Station Details ID: 094155 Name: TASMAN ISLAND Lat: -43.24 Lon: 148.00 Height: 240.0 m
Data from the previous 72 hours. | See also: Recent months at Tasman Island
Date/Time
EDT
Temp

°C
Wind Pressure Rain
since 9am
mm
Weather Cloud Vis
km
Sea
Height
m
Swell
Dir
 
Speed
knots
Gust
knots
hPa Trend Height
m
Period
s
Dir
04/09:36am 15.4 NW 27 38 1002.0 - 0.0 - - - - - - -
04/09:30am 15.4 NW 28 37 1001.8 - 0.0 - - - - - - -
04/09:00am 14.6 NW 26 35 1001.8 - 0.2 - - - - - - -
04/08:30am 14.2 NW 24 34 1002.6 - 0.2 - - - - - - -
04/08:00am 13.9 NW 19 29 1002.7 - 0.2 - - - - - - -
04/07:32am 13.5 NW 18 30 1002.8 - 0.2 - - - - - - -
04/07:30am 13.5 NW 17 26 1002.9 - 0.2 - - - - - - -
04/07:00am 12.8 NNW 14 21 1003.2 - 0.2 - - - - - - -
04/06:38am 12.8 NW 18 29 1002.8 - 0.2 - - - - - - -
04/06:30am 13.0 NW 22 31 1003.0 - 0.2 - - - - - - -
04/06:02am 12.9 NW 16 27 1003.3 - 0.2 - - - - - - -
04/06:00am 12.6 NW 15 21 1003.3 - 0.2 - - - - - - -
04/05:30am 12.8 WNW 19 27 1003.3 - 0.2 - - - - - - -
04/05:02am 12.6 NW 17 27 1003.5 - 0.2 - - - - - - -
04/05:00am 12.4 NW 17 26 1003.6 - 0.2 - - - - - - -
04/04:53am 12.6 WNW 15 26 1003.9 - 0.2 - - - - - - -
04/04:30am 12.3 NW 18 26 1004.1 - 0.2 - - - - - - -
04/04:06am 12.3 NW 15 27 1004.2 - 0.2 - - - - - - -
04/04:00am 12.0 NW 14 22 1004.4 - 0.2 - - - - - - -
04/03:30am 12.2 NW 14 22 1004.9 - 0.2 - - - - - - -
04/03:00am 12.1 WNW 14 21 1005.3 - 0.2 - - - - - - -
04/02:30am 11.9 WNW 13 21 1005.7 - 0.2 - - - - - - -
04/02:00am 11.9 WNW 14 21 1006.3 - 0.2 - - - - - - -
04/01:30am 11.6 NW 11 17 1006.9 - 0.2 - - - - - - -
04/01:00am 12.0 WNW 11 16 1007.4 - 0.2 - - - - - - -
04/12:30am 11.7 WNW 9 17 1008.0 - 0.2 - - - - - - -
04/12:00am 12.1 WNW 7 17 1008.8 - 0.2 - - - - - - -
 
Date/Time
EDT
Temp

°C
Wind Pressure Rain
since 9am
mm
Weather Cloud Vis
km
Sea
Height
m
Swell
Dir
 
Speed
knots
Gust
knots
hPa Trend Height
m
Period
s
Dir
03/11:30pm 12.4 NW 11 23 1008.9 - 0.2 - - - - - - -
03/11:00pm 12.2 WNW 7 15 1009.0 - 0.2 - - - - - - -
03/10:30pm 13.2 NNW 11 15 1009.6 - 0.0 - - - - - - -
03/10:00pm 12.1 NNE 12 17 1009.7 - 0.0 - - - - - - -
03/09:30pm 12.1 NE 10 15 1010.1 - 0.0 - - - - - - -
03/09:00pm 12.0 NE 11 18 1010.3 - 0.0 - - - - - - -
03/08:30pm 12.3 NE 12 20 1010.3 - 0.0 - - - - - - -
03/08:00pm 12.6 NE 11 18 1010.4 - 0.0 - - - - - - -
03/07:30pm 12.6 NE 10 18 1010.7 - 0.0 - - - - - - -
03/07:00pm 12.7 NE 6 14 1011.1 - 0.0 - - - - - - -
03/06:30pm 12.9 NNE 5 11 1011.3 - 0.0 - - - - - - -
03/06:00pm 13.6 ENE 5 9 1011.4 - 0.0 - - - - - - -
03/05:30pm 14.4 E 3 7 1011.7 - 0.0 - - - - - - -
03/05:00pm 14.4 E 4 7 1011.7 - 0.0 - - - - - - -
03/04:30pm 14.5 SE 4 7 1012.0 - 0.0 - - - - - - -
03/04:00pm 15.1 S 5 7 1012.1 - 0.0 - - - - - - -
03/03:30pm 15.6 SW 9 12 1012.0 - 0.0 - - - - - - -
03/03:00pm 16.2 WSW 6 10 1012.3 - 0.0 - - - - - - -
03/02:30pm 16.2 SW 7 10 1012.7 - 0.0 - - - - - - -
03/02:00pm 15.4 WSW 4 10 1013.1 - 0.0 - - - - - - -
03/01:30pm 15.2 W 5 13 1013.3 - 0.0 - - - - - - -
03/01:00pm 14.9 WNW 4 10 1013.4 - 0.0 - - - - - - -
03/12:30pm 14.8 SW 4 12 1013.9 - 0.0 - - - - - - -
03/12:00pm 14.4 WSW 5 12 1014.3 - 0.0 - - - - - - -
03/11:30am 14.9 NW 3 10 1014.4 - 0.0 - - - - - - -
03/11:00am 13.8 W 3 13 1014.1 - 0.0 - - - - - - -
03/10:30am 13.3 SW 5 15 1014.3 - 0.0 - - - - - - -
03/10:00am 13.0 SW 7 17 1014.0 - 0.0 - - - - - - -
03/09:30am 12.0 SW 13 30 1013.6 - 0.0 - - - - - - -
03/09:00am 11.7 SW 10 22 1013.5 - 0.4 - - - - - - -
03/08:30am 11.7 SW 16 29 1013.4 - 0.4 - - - - - - -
03/08:00am 11.3 SW 17 33 1013.1 - 0.4 - - - - - - -
03/07:30am 11.4 SSW 15 30 1012.7 - 0.4 - - - - - - -
03/07:07am 11.5 SSW 15 31 1012.3 - 0.4 - - - - - - -
03/07:00am 11.6 SW 14 30 1012.3 - 0.4 - - - - - - -
03/06:55am 11.5 SW 14 30 1012.2 - 0.4 - - - - - - -
03/06:30am 11.7 SW 8 21 1012.0 - 0.4 - - - - - - -
03/06:00am 11.4 SSW 6 21 1011.5 - 0.4 Recent precip. - - - - - -
03/05:30am 11.1 SW 12 27 1011.4 - 0.4 - - - - - - -
03/05:00am 10.9 SW 13 30 1011.1 - 0.2 - - - - - - -
03/04:30am 10.8 SSW 15 25 1011.1 - 0.2 - - - - - - -
03/04:00am 13.2 WSW 5 17 1010.9 - 0.0 - - - - - - -
03/03:30am 13.6 WNW 12 23 1010.5 - 0.0 - - - - - - -
03/03:11am 13.3 WNW 15 25 1010.4 - 0.0 - - - - - - -
03/03:00am 13.4 WNW 14 23 1010.5 - 0.0 - - - - - - -
03/02:40am 13.3 WNW 15 26 1010.6 - 0.0 - - - - - - -
03/02:30am 13.0 NW 14 20 1010.7 - 0.0 - - - - - - -
03/02:00am 12.3 NNW 12 19 1010.8 - 0.0 - - - - - - -
03/01:40am 12.7 NNW 16 26 1010.7 - 0.0 - - - - - - -
03/01:30am 12.6 NNW 18 26 1010.8 - 0.0 - - - - - - -
03/01:00am 13.0 NW 16 21 1011.3 - 0.0 - - - - - - -
03/12:39am 13.0 WNW 17 28 1011.5 - 0.0 - - - - - - -
03/12:30am 12.9 NW 14 22 1011.7 - 0.0 - - - - - - -
03/12:00am 12.9 NNE 5 18 1011.6 - 0.0 - - - - - - -
 
Date/Time
EDT
Temp

°C
Wind Pressure Rain
since 9am
mm
Weather Cloud Vis
km
Sea
Height
m
Swell
Dir
 
Speed
knots
Gust
knots
hPa Trend Height
m
Period
s
Dir
02/11:31pm 13.2 NW 11 29 1011.7 - 0.0 - - - - - - -
02/11:30pm 13.2 NW 10 24 1011.7 - 0.0 - - - - - - -
02/11:00pm 12.8 WSW 5 11 1012.1 - 0.0 - - - - - - -
02/10:30pm 12.6 SW 7 12 1012.1 - 0.0 - - - - - - -
02/10:00pm 12.7 SW 13 18 1012.1 - 0.0 - - - - - - -
02/09:30pm 12.7 SW 11 18 1011.7 - 0.0 - - - - - - -
02/09:00pm 12.6 SSW 5 14 1011.5 - 0.0 - - - - - - -
02/08:30pm 12.8 S 4 8 1011.0 - 0.0 - - - - - - -
02/08:00pm 14.0 ESE 4 9 1010.7 - 0.0 - - - - - - -
02/07:30pm 16.3 NNW 12 19 1010.3 - 0.0 - - - - - - -
02/07:01pm 15.9 N 17 28 1010.0 - 0.0 - - - - - - -
02/07:00pm 15.9 N 16 25 1010.0 - 0.0 - - - - - - -
02/06:47pm 15.7 N 19 29 1009.9 - 0.0 - - - - - - -
02/06:30pm 15.7 N 23 31 1009.9 - 0.0 - - - - - - -
02/06:00pm 15.6 N 22 29 1010.2 - 0.0 - - - - - - -
02/05:30pm 15.4 N 23 29 1010.5 - 0.0 - - - - - - -
02/05:00pm 15.3 N 21 27 1010.8 - 0.0 - - - - - - -
02/04:30pm 15.5 NNE 19 26 1011.4 - 0.0 - - - - - - -
02/04:00pm 15.1 NNE 20 26 1011.9 - 0.0 - - - - - - -
02/03:30pm 15.1 NNE 19 27 1012.5 - 0.0 - - - - - - -
02/03:00pm 14.9 NNE 20 26 1013.0 - 0.0 - - - - - - -
02/02:30pm 14.3 NNE 16 26 1013.6 - 0.0 - - - - - - -
02/02:25pm 14.3 NNE 16 26 1013.7 - 0.0 - - - - - - -
02/02:00pm 13.9 NNE 18 25 1014.3 - 0.0 - - - - - - -
02/01:30pm 13.5 NNE 16 21 1014.9 - 0.0 - - - - - - -
02/01:00pm 13.4 NNE 18 24 1015.2 - 0.0 - - - - - - -
02/12:30pm 12.4 NNE 17 23 1016.1 - 0.0 - - - - - - -
02/12:00pm 12.5 NNE 16 22 1016.9 - 0.0 - - - - - - -
02/11:30am 12.2 NNE 14 18 1017.6 - 0.0 - - - - - - -
02/11:00am 12.9 NNE 10 15 1017.7 - 0.0 - - - - - - -
02/10:30am 12.5 N 7 11 1018.1 - 0.0 - - - - - - -
02/10:00am 11.7 NNE 5 8 1018.1 - 0.0 - - - - - - -
02/09:30am 11.5 N 3 7 1018.3 - 0.0 - - - - - - -
02/09:00am 11.1 NW 4 5 1018.3 - 0.2 - - - - - - -
02/08:30am 10.5 NW 6 10 1018.2 - 0.2 - - - - - - -
02/08:00am 10.1 NW 5 8 1018.1 - 0.2 - - - - - - -
02/07:30am 9.8 NW 1 4 1017.8 - 0.2 - - - - - - -
02/07:00am 9.7 NW 3 8 1017.8 - 0.2 - - - - - - -
02/06:30am 9.8 WSW 4 9 1017.7 - 0.2 - - - - - - -
02/06:00am 9.6 W 3 8 1017.5 - 0.2 - - - - - - -
02/05:30am 9.4 WSW 5 10 1017.4 - 0.2 - - - - - - -
02/05:00am 9.3 WSW 4 10 1017.4 - 0.2 - - - - - - -
02/04:30am 9.6 WSW 6 15 1017.4 - 0.2 - - - - - - -
02/04:00am 9.7 WSW 4 11 1017.2 - 0.2 - - - - - - -
02/03:30am 9.8 WSW 6 15 1017.2 - 0.2 - - - - - - -
02/03:00am 9.5 SW 7 13 1016.9 - 0.2 - - - - - - -
02/02:30am 9.7 SW 7 15 1017.1 - 0.2 - - - - - - -
02/02:00am 10.1 WSW 6 13 1017.0 - 0.2 - - - - - - -
02/01:30am 10.0 SW 8 23 1017.2 - 0.2 - - - - - - -
02/01:00am 10.1 SW 9 21 1016.6 - 0.2 - - - - - - -
02/12:30am 10.2 SW 10 25 1016.3 - 0.2 - - - - - - -
02/12:19am 10.1 SW 15 27 1016.3 - 0.2 - - - - - - -
02/12:00am 10.4 SW 14 26 1016.4 - 0.2 - - - - - - -
 
Date/Time
EDT
Temp

°C
Wind Pressure Rain
since 9am
mm
Weather Cloud Vis
km
Sea
Height
m
Swell
Dir
 
Speed
knots
Gust
knots
hPa Trend Height
m
Period
s
Dir
01/11:35pm 10.4 SW 15 25 1016.3 - 0.2 - - - - - - -
01/11:30pm 10.5 SSW 11 23 1016.5 - 0.2 - - - - - - -
01/11:00pm 10.6 SW 14 24 1016.4 - 0.2 - - - - - - -
01/10:30pm 10.7 SW 20 33 1016.3 - 0.2 - - - - - - -
01/10:00pm 10.7 SW 18 34 1015.9 - 0.2 - - - - - - -
01/09:30pm 10.9 SW 18 37 1015.8 - 0.2 - - - - - - -
01/09:10pm 10.9 SW 16 33 1015.6 - 0.2 - - - - - - -
01/09:00pm 11.0 SW 13 32 1015.5 - 0.2 - - - - - - -
01/08:30pm 11.1 SW 22 37 1014.5 - 0.2 - - - - - - -
01/08:00pm 11.1 SW 20 38 1014.0 - 0.2 - - - - - - -
01/07:30pm 11.6 SW 22 35 1013.5 - 0.2 - - - - - - -
01/07:00pm 11.9 SW 19 34 1013.2 - 0.2 - - - - - - -
01/06:30pm 12.2 SW 20 37 1012.6 - 0.2 - - - - - - -
01/06:00pm 12.3 SW 25 39 1012.1 - 0.2 - - - - - - -
01/05:30pm 12.0 SW 22 34 1011.9 - 0.2 - - - - - - -
01/05:00pm 12.9 SW 18 29 1011.5 - 0.2 - - - - - - -
01/04:52pm 12.4 SW 15 30 1011.2 - 0.2 - - - - - - -
01/04:30pm 12.8 SW 12 32 1010.8 - 0.2 - - - - - - -
01/04:00pm 13.1 SW 23 37 1010.5 - 0.2 - - - - - - -
01/03:30pm 13.8 SW 19 38 1009.8 - 0.2 - - - - - - -
01/03:00pm 14.6 SW 15 36 1009.4 - 0.0 - - - - - - -
01/02:30pm 14.3 SW 17 34 1008.9 - 0.0 - - - - - - -
01/02:00pm 14.1 SW 15 29 1008.5 - 0.0 - - - - - - -
01/01:30pm 11.2 SW 15 34 1008.0 - 0.0 - - - - - - -
01/01:00pm 14.0 SW 15 34 1007.7 - 0.0 - - - - - - -
01/12:33pm 14.1 WSW 15 38 1007.4 - 0.0 - - - - - - -
01/12:30pm 13.7 WSW 14 38 1007.2 - 0.0 - - - - - - -
01/12:14pm 13.7 SW 15 36 1007.0 - 0.0 - - - - - - -
01/12:00pm 13.5 WSW 14 32 1007.0 - 0.0 - - - - - - -
01/11:30am 12.9 WSW 16 32 1006.3 - 0.0 - - - - - - -
01/11:00am 12.8 WSW 16 35 1005.8 - 0.0 - - - - - - -
01/10:33am 12.9 SW 15 33 1005.2 - 0.0 - - - - - - -
01/10:30am 13.1 SW 14 32 1005.2 - 0.0 - - - - - - -
01/10:01am 13.2 WSW 15 42 1004.6 - 0.0 - - - - - - -
01/10:00am 13.2 WSW 14 42 1004.4 - 0.0 - - - - - - -

Other Formats:

Comma delimited format used in spreadsheet applications
http://www.bom.gov.au/fwo/IDT60701/IDT60701.95986.axf

JavaScript Object Notation format (JSON) in row-major order
http://www.bom.gov.au/fwo/IDT60701/IDT60701.95986.json